createdAt,value
2018-11-26T00:00:16.754Z,83.12
2018-11-26T00:02:44.877Z,82.36
2018-11-26T00:05:12.909Z,82.58
2018-11-26T00:07:55.862Z,82.61
2018-11-26T00:10:29.490Z,83.42
2018-11-26T00:12:57.561Z,82.77
2018-11-26T00:15:25.617Z,82.39
2018-11-26T00:17:53.708Z,82.18
2018-11-26T00:20:21.747Z,82.88
2018-11-26T00:22:49.798Z,83.09
2018-11-26T00:25:17.789Z,82.79
2018-11-26T00:27:45.833Z,83.28
2018-11-26T00:30:13.867Z,82.77
2018-11-26T00:32:41.919Z,83.25
2018-11-26T00:35:09.931Z,82.34
2018-11-26T00:37:37.976Z,83.02
2018-11-26T00:40:07.397Z,82.42
2018-11-26T00:42:35.449Z,82.66
2018-11-26T00:45:03.486Z,82.90
2018-11-26T00:47:31.558Z,82.57
2018-11-26T00:49:59.648Z,82.25
2018-11-26T00:52:27.632Z,81.78
2018-11-26T00:54:55.650Z,82.08
2018-11-26T00:57:23.669Z,82.32
2018-11-26T00:59:51.684Z,82.22
2018-11-26T01:02:19.675Z,82.05
2018-11-26T01:04:47.718Z,83.31
2018-11-26T01:07:15.758Z,82.88
2018-11-26T01:09:43.827Z,83.17
2018-11-26T01:12:12.083Z,82.90
2018-11-26T01:14:40.061Z,82.61
2018-11-26T01:17:08.110Z,82.40
2018-11-26T01:19:36.179Z,82.03
2018-11-26T01:22:04.229Z,82.54
2018-11-26T01:24:32.237Z,83.34
2018-11-26T01:27:00.249Z,82.63
2018-11-26T01:29:28.237Z,81.81
2018-11-26T01:31:57.525Z,82.54
2018-11-26T01:34:25.506Z,82.70
2018-11-26T01:36:53.558Z,82.55
2018-11-26T01:39:21.591Z,82.59
2018-11-26T01:41:49.665Z,82.61
2018-11-26T01:44:17.696Z,82.52
2018-11-26T01:46:45.766Z,82.73
2018-11-26T01:49:13.769Z,82.45
2018-11-26T01:51:41.826Z,82.44
2018-11-26T01:54:09.840Z,82.58
2018-11-26T01:56:37.897Z,82.75
2018-11-26T01:59:05.978Z,82.38
2018-11-26T02:01:34.002Z,81.87
2018-11-26T02:04:02.061Z,82.43
2018-11-26T02:06:30.053Z,82.38
2018-11-26T02:08:58.099Z,82.69
2018-11-26T02:11:26.116Z,82.01
2018-11-26T02:13:54.162Z,82.16
2018-11-26T02:16:22.164Z,81.94
2018-11-26T02:18:50.206Z,81.86
2018-11-26T02:21:18.237Z,82.11
2018-11-26T02:23:47.373Z,82.33
2018-11-26T02:26:15.410Z,82.42
2018-11-26T02:28:43.448Z,82.63
2018-11-26T02:31:11.517Z,82.40
2018-11-26T02:33:39.573Z,82.41
2018-11-26T02:36:07.586Z,82.66
2018-11-26T02:38:35.666Z,82.71
2018-11-26T02:41:03.734Z,82.91
2018-11-26T02:43:31.786Z,82.27
2018-11-26T02:45:59.853Z,83.43
2018-11-26T02:48:27.848Z,82.42
2018-11-26T02:50:55.918Z,82.39
2018-11-26T02:53:23.983Z,82.64
2018-11-26T02:55:52.010Z,82.47
2018-11-26T02:58:20.068Z,81.58
2018-11-26T03:00:48.076Z,81.92
2018-11-26T03:03:16.137Z,81.81
2018-11-26T03:05:44.137Z,82.24
2018-11-26T03:08:12.166Z,82.17
2018-11-26T03:10:40.189Z,82.02
2018-11-26T03:13:08.203Z,81.74
2018-11-26T03:15:36.256Z,81.76
2018-11-26T03:18:04.271Z,81.87
2018-11-26T03:20:32.288Z,82.27
2018-11-26T03:23:00.355Z,81.77
2018-11-26T03:25:29.354Z,81.82
2018-11-26T03:27:57.511Z,82.78
2018-11-26T03:30:25.562Z,82.25
2018-11-26T03:32:53.622Z,82.81
2018-11-26T03:35:21.694Z,82.27
2018-11-26T03:37:49.695Z,81.90
2018-11-26T03:40:17.757Z,81.88
2018-11-26T03:42:45.767Z,81.90
2018-11-26T03:45:14.359Z,81.92
2018-11-26T03:47:42.361Z,82.09
2018-11-26T03:50:10.732Z,82.05
2018-11-26T03:52:38.817Z,81.90
2018-11-26T03:55:07.688Z,81.78
2018-11-26T03:57:35.738Z,82.10
2018-11-26T04:00:04.174Z,82.32
2018-11-26T04:02:32.160Z,82.82
2018-11-26T04:05:00.166Z,81.99
2018-11-26T04:07:28.211Z,82.32
2018-11-26T04:09:56.200Z,81.90
2018-11-26T04:12:24.237Z,81.99
2018-11-26T04:14:52.323Z,82.04
2018-11-26T04:17:20.334Z,81.90
2018-11-26T04:19:48.346Z,81.69
2018-11-26T04:22:16.371Z,81.79
2018-11-26T04:24:44.419Z,81.95
2018-11-26T04:27:12.491Z,81.89
2018-11-26T04:29:40.498Z,81.85
2018-11-26T04:32:08.533Z,82.01
2018-11-26T04:34:36.597Z,81.51
2018-11-26T04:37:04.978Z,82.41
2018-11-26T04:39:33.087Z,81.76
2018-11-26T04:42:01.102Z,81.94
2018-11-26T04:44:29.128Z,82.39
2018-11-26T04:46:57.118Z,82.12
2018-11-26T04:49:25.210Z,82.50
2018-11-26T04:51:53.236Z,81.55
2018-11-26T04:54:21.518Z,81.82
2018-11-26T04:56:49.531Z,81.58
2018-11-26T04:59:17.562Z,82.13
2018-11-26T05:01:45.575Z,81.85
2018-11-26T05:04:13.616Z,82.26
2018-11-26T05:06:42.263Z,81.92
2018-11-26T05:09:10.290Z,82.04
2018-11-26T05:11:38.413Z,82.67
2018-11-26T05:14:06.444Z,82.86
2018-11-26T05:16:34.456Z,82.38
2018-11-26T05:19:02.486Z,82.05
2018-11-26T05:21:30.541Z,82.39
2018-11-26T05:23:58.584Z,81.96
2018-11-26T05:26:26.645Z,82.27
2018-11-26T05:28:54.634Z,82.01
2018-11-26T05:31:22.669Z,81.97
2018-11-26T05:33:50.646Z,82.38
2018-11-26T05:36:18.702Z,81.96
2018-11-26T05:38:46.686Z,81.97
2018-11-26T05:41:14.686Z,82.87
2018-11-26T05:43:42.746Z,82.89
2018-11-26T05:46:10.792Z,83.06
2018-11-26T05:48:38.880Z,82.57
2018-11-26T05:51:07.172Z,82.28
2018-11-26T05:53:35.184Z,81.92
2018-11-26T05:56:03.254Z,82.06
2018-11-26T05:58:31.227Z,82.30
2018-11-26T06:00:59.238Z,81.81
2018-11-26T06:03:27.271Z,82.53
2018-11-26T06:05:55.271Z,81.92
2018-11-26T06:08:23.273Z,81.93
2018-11-26T06:10:51.274Z,81.81
2018-11-26T06:13:19.304Z,81.80
2018-11-26T06:15:48.413Z,82.21
2018-11-26T06:18:16.426Z,81.72
2018-11-26T06:20:44.413Z,82.02
2018-11-26T06:23:12.487Z,81.86
2018-11-26T06:25:40.469Z,81.93
2018-11-26T06:28:08.537Z,81.76
2018-11-26T06:30:36.621Z,81.79
2018-11-26T06:33:04.949Z,81.92
2018-11-26T06:35:33.905Z,81.75
2018-11-26T06:38:01.913Z,81.47
2018-11-26T06:40:29.954Z,81.69
2018-11-26T06:42:57.931Z,82.32
2018-11-26T06:45:25.942Z,82.51
2018-11-26T06:47:54.005Z,81.41
2018-11-26T06:50:22.150Z,81.51
2018-11-26T06:52:50.182Z,81.56
2018-11-26T06:55:18.765Z,81.75
2018-11-26T06:57:47.055Z,81.49
2018-11-26T07:00:15.942Z,81.64
2018-11-26T07:02:43.942Z,81.68
2018-11-26T07:05:13.621Z,81.65
2018-11-26T07:07:41.710Z,81.72
2018-11-26T07:10:10.240Z,81.79
2018-11-26T07:12:38.307Z,81.49
2018-11-26T07:15:09.074Z,82.09
2018-11-26T07:17:37.099Z,81.49
2018-11-26T07:20:07.931Z,81.71
2018-11-26T07:22:35.957Z,81.96
2018-11-26T07:25:04.500Z,81.84
2018-11-26T07:27:34.620Z,81.63
2018-11-26T07:30:02.698Z,81.59
2018-11-26T07:32:30.771Z,81.83
2018-11-26T07:34:58.846Z,81.62
2018-11-26T07:37:27.031Z,81.92
2018-11-26T07:39:59.010Z,81.58
2018-11-26T07:42:27.116Z,81.54
2018-11-26T07:44:55.174Z,82.30
2018-11-26T07:47:23.566Z,81.54
2018-11-26T07:49:54.284Z,81.20
2018-11-26T07:52:22.418Z,81.87
2018-11-26T07:54:50.478Z,81.84
2018-11-26T07:57:18.643Z,81.92
2018-11-26T07:59:46.793Z,81.89
2018-11-26T08:02:14.889Z,81.74
2018-11-26T08:04:43.022Z,81.11
2018-11-26T08:07:11.127Z,81.56
2018-11-26T08:09:39.259Z,81.75
2018-11-26T08:12:07.387Z,81.79
2018-11-26T08:14:36.134Z,81.65
2018-11-26T08:17:04.219Z,81.70
2018-11-26T08:19:32.333Z,81.56
2018-11-26T08:22:00.447Z,81.67
2018-11-26T08:24:28.648Z,81.68
2018-11-26T08:26:58.694Z,81.77
2018-11-26T08:29:26.831Z,81.69
2018-11-26T08:31:55.444Z,81.35
2018-11-26T08:34:23.592Z,81.77
2018-11-26T08:36:55.920Z,81.69
2018-11-26T08:39:28.239Z,81.76
2018-11-26T08:41:56.325Z,82.35
2018-11-26T08:44:29.919Z,81.76
2018-11-26T08:47:03.444Z,82.10
2018-11-26T08:49:33.505Z,81.88
2018-11-26T08:52:01.619Z,82.09
2018-11-26T08:54:29.707Z,81.47
2018-11-26T08:56:57.829Z,81.41
2018-11-26T08:59:25.895Z,81.41
2018-11-26T09:01:59.464Z,80.79
2018-11-26T09:04:31.525Z,81.41
2018-11-26T09:06:59.572Z,81.61
2018-11-26T09:09:32.859Z,81.46
2018-11-26T09:11:59.685Z,81.39
2018-11-26T09:14:27.746Z,81.51
2018-11-26T09:16:55.827Z,81.30
2018-11-26T09:19:24.755Z,81.44
2018-11-26T09:21:52.881Z,81.64
2018-11-26T09:24:20.979Z,81.58
2018-11-26T09:26:49.103Z,81.35
2018-11-26T09:29:17.150Z,81.25
2018-11-26T09:31:45.214Z,81.35
2018-11-26T09:34:13.338Z,81.30
2018-11-26T09:36:41.465Z,81.89
2018-11-26T09:39:10.347Z,81.54
2018-11-26T09:41:38.823Z,81.83
2018-11-26T09:44:07.018Z,81.48
2018-11-26T09:46:35.530Z,81.20
2018-11-26T09:49:03.682Z,81.49
2018-11-26T09:51:31.769Z,81.46
2018-11-26T09:53:59.840Z,81.20
2018-11-26T09:56:28.350Z,81.63
2018-11-26T09:58:56.378Z,81.75
2018-11-26T10:01:24.533Z,81.50
2018-11-26T10:03:53.594Z,81.27
2018-11-26T10:06:21.748Z,81.10
2018-11-26T10:08:49.841Z,81.16
2018-11-26T10:11:18.001Z,81.39
2018-11-26T10:13:50.091Z,81.39
2018-11-26T10:16:18.205Z,81.46
2018-11-26T10:18:46.549Z,81.35
2018-11-26T10:21:14.604Z,81.39
2018-11-26T10:23:42.633Z,81.36
2018-11-26T10:26:10.748Z,81.42
2018-11-26T10:28:38.857Z,81.53
2018-11-26T10:31:07.022Z,81.36
2018-11-26T10:33:35.083Z,81.14
2018-11-26T10:36:04.910Z,80.96
2018-11-26T10:38:32.968Z,81.15
2018-11-26T10:41:01.052Z,81.25
2018-11-26T10:43:29.165Z,81.11
2018-11-26T10:45:57.358Z,81.12
2018-11-26T10:48:25.406Z,80.65
2018-11-26T10:50:53.531Z,81.00
2018-11-26T10:53:21.654Z,80.13
2018-11-26T10:55:49.799Z,80.94
2018-11-26T10:58:18.719Z,80.93
2018-11-26T11:00:52.322Z,80.97
2018-11-26T11:03:20.391Z,80.93
2018-11-26T11:05:48.483Z,80.47
2018-11-26T11:08:17.488Z,80.38
2018-11-26T11:10:45.558Z,80.58
2018-11-26T11:13:13.702Z,80.87
2018-11-26T11:15:41.845Z,80.59
2018-11-26T11:18:09.969Z,80.90
2018-11-26T11:20:38.129Z,80.81
2018-11-26T11:23:06.982Z,80.76
2018-11-26T11:25:35.173Z,80.81
2018-11-26T11:28:03.212Z,80.73
2018-11-26T11:30:31.415Z,80.29
2018-11-26T11:35:27.871Z,80.42
2018-11-26T11:37:55.921Z,80.90
2018-11-26T11:40:25.444Z,80.73
2018-11-26T11:42:53.686Z,80.47
2018-11-26T11:45:22.445Z,80.32
2018-11-26T11:47:50.518Z,80.70
2018-11-26T11:50:19.484Z,80.70
2018-11-26T11:52:48.308Z,80.32
2018-11-26T11:55:21.651Z,80.60
2018-11-26T11:57:49.838Z,80.58
2018-11-26T12:00:25.275Z,80.25
2018-11-26T12:02:53.401Z,80.42
2018-11-26T12:05:21.456Z,80.46
2018-11-26T12:07:49.550Z,80.63
2018-11-26T12:10:17.653Z,80.33
2018-11-26T12:12:46.175Z,80.08
2018-11-26T12:15:15.210Z,80.19
2018-11-26T12:17:43.690Z,80.76
2018-11-26T12:20:13.432Z,80.26
2018-11-26T12:22:41.777Z,80.49
2018-11-26T12:25:11.309Z,80.53
2018-11-26T12:27:39.409Z,80.19
2018-11-26T12:30:09.341Z,80.49
2018-11-26T12:32:39.384Z,80.35
2018-11-26T12:35:07.500Z,80.37
2018-11-26T12:37:35.583Z,80.35
2018-11-26T12:40:03.678Z,80.26
2018-11-26T12:42:31.732Z,80.55
2018-11-26T12:44:59.819Z,80.49
2018-11-26T12:47:27.931Z,80.58
2018-11-26T12:49:56.053Z,80.14
2018-11-26T12:52:24.752Z,80.25
2018-11-26T12:54:57.942Z,80.45
2018-11-26T12:57:26.521Z,80.42
2018-11-26T12:59:54.623Z,79.89
2018-11-26T13:02:22.727Z,80.02
2018-11-26T13:04:50.819Z,80.28
2018-11-26T13:07:21.878Z,80.25
2018-11-26T13:09:50.895Z,80.02
2018-11-26T13:12:21.382Z,79.97
2018-11-26T13:14:49.449Z,79.81
2018-11-26T13:17:17.607Z,79.96
2018-11-26T13:19:46.196Z,80.10
2018-11-26T13:22:14.395Z,80.38
2018-11-26T13:24:42.495Z,79.86
2018-11-26T13:27:10.621Z,79.73
2018-11-26T13:29:38.767Z,79.17
2018-11-26T13:32:07.156Z,79.81
2018-11-26T13:34:35.602Z,80.19
2018-11-26T13:37:03.785Z,79.68
2018-11-26T13:39:32.137Z,79.81
2018-11-26T13:42:00.879Z,79.52
2018-11-26T13:44:29.183Z,79.58
2018-11-26T13:46:57.307Z,79.99
2018-11-26T13:49:26.416Z,79.75
2018-11-26T13:51:55.256Z,79.90
2018-11-26T13:54:27.132Z,79.84
2018-11-26T13:56:55.299Z,79.41
2018-11-26T13:59:24.079Z,78.44
2018-11-26T14:01:52.191Z,79.68
2018-11-26T14:04:21.593Z,79.76
2018-11-26T14:06:49.667Z,79.03
2018-11-26T14:13:17.365Z,79.00
2018-11-26T14:15:45.761Z,79.75
2018-11-26T14:18:13.861Z,79.32
2018-11-26T14:20:42.530Z,79.57
2018-11-26T14:23:10.665Z,79.53
2018-11-26T14:25:38.755Z,79.24
2018-11-26T14:28:06.937Z,79.37
2018-11-26T14:30:35.059Z,79.72
2018-11-26T14:33:03.453Z,79.08
2018-11-26T14:35:31.675Z,79.30
2018-11-26T14:38:01.579Z,79.40
2018-11-26T14:40:34.515Z,79.31
2018-11-26T14:43:02.856Z,79.44
2018-11-26T14:45:31.619Z,79.35
2018-11-26T14:47:59.974Z,79.68
2018-11-26T14:50:28.113Z,79.25
2018-11-26T14:52:56.277Z,79.24
2018-11-26T14:55:25.641Z,79.33
2018-11-26T14:57:53.823Z,79.32
2018-11-26T15:00:22.179Z,78.51
2018-11-26T15:02:56.042Z,79.02
2018-11-26T15:05:39.243Z,79.64
2018-11-26T15:08:14.064Z,78.51
2018-11-26T15:10:42.948Z,79.14
2018-11-26T15:13:11.025Z,79.36
2018-11-26T15:15:39.142Z,79.11
2018-11-26T15:18:08.286Z,79.24
2018-11-26T15:20:36.414Z,79.18
2018-11-26T15:23:04.655Z,79.04
2018-11-26T15:25:33.302Z,79.06
2018-11-26T15:28:02.644Z,78.83
2018-11-26T15:30:30.701Z,79.04
2018-11-26T15:33:01.621Z,78.63
2018-11-26T15:35:29.722Z,79.35
2018-11-26T15:37:57.777Z,78.87
2018-11-26T15:40:25.927Z,78.77
2018-11-26T15:42:53.924Z,78.42
2018-11-26T15:45:30.840Z,78.77
2018-11-26T15:47:59.535Z,78.21
2018-11-26T15:50:28.774Z,78.80
2018-11-26T15:52:57.747Z,78.21
2018-11-26T15:55:25.914Z,78.40
2018-11-26T15:57:54.047Z,78.61
2018-11-26T16:00:24.165Z,78.33
2018-11-26T16:02:52.384Z,78.27
2018-11-26T16:05:21.079Z,78.36
2018-11-26T16:07:49.437Z,78.23
2018-11-26T16:10:17.484Z,77.91
2018-11-26T16:12:47.091Z,78.24
2018-11-26T16:15:16.923Z,78.54
2018-11-26T16:17:45.340Z,78.39
2018-11-26T16:20:15.005Z,78.21
2018-11-26T16:22:43.880Z,78.27
2018-11-26T16:25:15.241Z,77.84
2018-11-26T16:27:43.793Z,77.46
2018-11-26T16:30:12.550Z,78.08
2018-11-26T16:32:40.678Z,77.28
2018-11-26T16:35:13.049Z,77.74
2018-11-26T16:37:41.138Z,77.72
2018-11-26T16:40:10.132Z,77.40
2018-11-26T16:42:38.198Z,77.65
2018-11-26T16:45:07.411Z,78.07
2018-11-26T16:47:37.402Z,77.97
2018-11-26T16:50:06.477Z,77.49
2018-11-26T16:52:35.035Z,77.19
2018-11-26T16:55:03.106Z,77.22
2018-11-26T16:57:31.198Z,77.01
2018-11-26T16:59:59.281Z,77.25
2018-11-26T17:02:27.405Z,77.99
2018-11-26T17:04:55.430Z,77.90
2018-11-26T17:07:24.668Z,76.98
2018-11-26T17:09:52.760Z,77.61
2018-11-26T17:12:21.943Z,77.49
2018-11-26T17:14:49.992Z,77.69
2018-11-26T17:17:18.118Z,77.15
2018-11-26T17:19:46.273Z,77.51
2018-11-26T17:22:14.715Z,77.59
2018-11-26T17:24:43.809Z,77.52
2018-11-26T17:29:45.174Z,77.74
2018-11-26T17:32:13.243Z,77.70
2018-11-26T17:34:41.520Z,77.32
2018-11-26T17:37:09.671Z,77.81
2018-11-26T17:39:40.611Z,77.87
2018-11-26T17:42:08.581Z,76.67
2018-11-26T17:44:36.729Z,77.27
2018-11-26T17:47:04.802Z,77.58
2018-11-26T17:49:32.846Z,77.10
2018-11-26T17:52:00.940Z,77.24
2018-11-26T17:54:28.951Z,77.43
2018-11-26T17:56:57.035Z,77.15
2018-11-26T17:59:25.142Z,76.89
2018-11-26T18:01:53.238Z,77.12
2018-11-26T18:04:21.291Z,76.95
2018-11-26T18:06:49.462Z,77.43
2018-11-26T18:09:22.652Z,77.11
2018-11-26T18:11:49.661Z,77.29
2018-11-26T18:14:17.700Z,77.26
2018-11-26T18:16:45.796Z,76.72
2018-11-26T18:19:13.896Z,77.16
2018-11-26T18:21:42.022Z,77.10
2018-11-26T18:24:10.008Z,77.15
2018-11-26T18:26:38.095Z,77.23
2018-11-26T18:29:06.417Z,77.20
2018-11-26T18:31:34.530Z,77.12
2018-11-26T18:34:03.616Z,77.25
2018-11-26T18:36:32.722Z,76.81
2018-11-26T18:39:00.805Z,76.66
2018-11-26T18:41:29.078Z,76.81
2018-11-26T18:43:57.173Z,77.10
2018-11-26T18:46:25.275Z,77.08
2018-11-26T18:48:53.343Z,77.22
2018-11-26T18:51:21.621Z,76.69
2018-11-26T18:53:49.818Z,76.57
2018-11-26T18:56:17.895Z,76.83
2018-11-26T18:58:45.949Z,76.87
2018-11-26T19:01:14.470Z,77.09
2018-11-26T19:03:42.634Z,77.08
2018-11-26T19:06:10.706Z,77.02
2018-11-26T19:08:38.821Z,77.02
2018-11-26T19:11:07.989Z,76.91
2018-11-26T19:13:41.259Z,76.89
2018-11-26T19:16:10.860Z,77.04
2018-11-26T19:18:38.955Z,77.08
2018-11-26T19:21:07.128Z,77.27
2018-11-26T19:23:35.401Z,77.30
2018-11-26T19:26:05.542Z,77.13
2018-11-26T19:28:33.599Z,77.22
2018-11-26T19:31:01.802Z,76.64
2018-11-26T19:33:30.454Z,77.00
2018-11-26T19:35:58.550Z,77.18
2018-11-26T19:38:27.329Z,76.76
2018-11-26T19:40:55.811Z,76.90
2018-11-26T19:43:24.201Z,76.97
2018-11-26T19:45:52.772Z,77.02
2018-11-26T19:48:20.827Z,77.01
2018-11-26T19:50:48.912Z,77.19
2018-11-26T19:53:16.978Z,77.10
2018-11-26T19:55:45.055Z,76.80
2018-11-26T19:58:13.429Z,77.24
2018-11-26T20:00:41.769Z,77.07
2018-11-26T20:03:10.740Z,77.09
2018-11-26T20:08:22.404Z,76.64
2018-11-26T20:10:50.523Z,76.84
2018-11-26T20:13:18.601Z,77.22
2018-11-26T20:15:46.716Z,77.22
2018-11-26T20:18:21.494Z,77.15
2018-11-26T20:20:49.606Z,77.02
2018-11-26T20:23:18.331Z,76.77
2018-11-26T20:25:46.513Z,77.16
2018-11-26T20:28:14.536Z,77.18
2018-11-26T20:30:42.664Z,76.73
2018-11-26T20:33:10.745Z,77.51
2018-11-26T20:35:38.867Z,76.91
2018-11-26T20:38:07.462Z,77.04
2018-11-26T20:40:35.554Z,76.67
2018-11-26T20:43:03.785Z,76.78
2018-11-26T20:45:32.522Z,76.70
2018-11-26T20:48:00.620Z,76.70
2018-11-26T20:50:29.001Z,76.64
2018-11-26T20:52:57.007Z,76.90
2018-11-26T20:55:25.541Z,76.53
2018-11-26T20:57:54.347Z,75.93
2018-11-26T21:00:23.403Z,77.05
2018-11-26T21:02:52.365Z,76.82
2018-11-26T21:05:20.604Z,76.96
2018-11-26T21:07:48.890Z,76.63
2018-11-26T21:10:17.292Z,76.27
2018-11-26T21:12:45.598Z,76.66
2018-11-26T21:15:14.290Z,77.00
2018-11-26T21:17:43.117Z,77.11
2018-11-26T21:20:15.279Z,77.07
2018-11-26T21:22:43.472Z,76.81
2018-11-26T21:25:13.529Z,76.93
2018-11-26T21:27:41.739Z,76.88
2018-11-26T21:30:12.132Z,76.74
2018-11-26T21:32:40.540Z,76.79
2018-11-26T21:35:09.660Z,76.80
2018-11-26T21:37:38.012Z,76.98
2018-11-26T21:40:07.438Z,76.65
2018-11-26T21:42:35.710Z,76.81
2018-11-26T21:45:04.044Z,76.66
2018-11-26T21:47:32.341Z,76.73
2018-11-26T21:50:00.634Z,76.76
2018-11-26T21:52:29.757Z,76.87
2018-11-26T21:54:57.991Z,76.82
2018-11-26T21:57:26.200Z,77.01
2018-11-26T21:59:54.432Z,76.99
2018-11-26T22:02:22.587Z,76.98
2018-11-26T22:04:52.732Z,76.67
2018-11-26T22:07:20.969Z,76.62
2018-11-26T22:09:49.250Z,76.87
2018-11-26T22:12:17.495Z,77.00
2018-11-26T22:14:45.665Z,76.99
2018-11-26T22:17:13.873Z,76.60
2018-11-26T22:19:42.068Z,77.05
2018-11-26T22:22:10.312Z,76.89
2018-11-26T22:24:38.523Z,76.63
2018-11-26T22:27:06.758Z,76.92
2018-11-26T22:29:35.154Z,76.71
2018-11-26T22:32:03.374Z,76.84
2018-11-26T22:34:31.631Z,77.08
2018-11-26T22:37:01.083Z,76.79
2018-11-26T22:39:29.345Z,76.92
2018-11-26T22:41:57.394Z,76.75
2018-11-26T22:44:25.422Z,76.92
2018-11-26T22:46:53.433Z,76.90
2018-11-26T22:49:21.520Z,76.78
2018-11-26T22:51:51.579Z,76.71
2018-11-26T22:54:17.652Z,77.00
2018-11-26T22:56:45.662Z,76.81
2018-11-26T22:59:14.264Z,76.62
2018-11-26T23:01:42.348Z,76.86
2018-11-26T23:04:10.331Z,76.72
2018-11-26T23:06:38.392Z,76.67
2018-11-26T23:09:07.622Z,76.83
2018-11-26T23:11:35.625Z,76.50
2018-11-26T23:14:03.650Z,76.93
2018-11-26T23:16:31.691Z,77.03
2018-11-26T23:18:59.657Z,77.24
2018-11-26T23:21:27.670Z,76.98
2018-11-26T23:23:55.679Z,76.81
2018-11-26T23:26:23.821Z,76.68
2018-11-26T23:28:51.831Z,76.76
2018-11-26T23:31:19.948Z,76.08
2018-11-26T23:33:48.023Z,76.68
2018-11-26T23:36:16.113Z,76.83
2018-11-26T23:38:44.164Z,76.84
2018-11-26T23:41:12.260Z,76.98
2018-11-26T23:43:40.276Z,76.68
2018-11-26T23:46:08.296Z,76.65
2018-11-26T23:48:36.296Z,76.66
2018-11-26T23:51:04.411Z,76.62
2018-11-26T23:53:32.455Z,76.82
2018-11-26T23:56:00.488Z,76.70
2018-11-26T23:58:28.496Z,76.73
